createdAt,value
2022-10-21T00:04:19.679Z,8.74
2022-10-21T00:09:50.721Z,8.73
2022-10-21T00:15:21.638Z,8.75
2022-10-21T00:20:52.647Z,8.76
2022-10-21T00:26:23.568Z,8.72
2022-10-21T00:31:54.809Z,8.70
2022-10-21T00:37:25.868Z,8.68
2022-10-21T00:42:57.591Z,8.66
2022-10-21T00:48:51.933Z,8.67
2022-10-21T00:54:24.091Z,8.68
2022-10-21T00:59:58.686Z,8.67
2022-10-21T01:05:31.058Z,8.66
2022-10-21T01:11:02.534Z,8.63
2022-10-21T01:16:48.648Z,8.63
2022-10-21T01:22:50.857Z,8.67
2022-10-21T01:29:02.444Z,8.68
2022-10-21T01:34:38.246Z,8.66
2022-10-21T01:40:15.203Z,8.67
2022-10-21T01:45:57.252Z,8.66
2022-10-21T01:51:29.314Z,8.66
2022-10-21T01:57:02.028Z,8.66
2022-10-21T02:02:35.439Z,8.65
2022-10-21T02:08:07.728Z,8.64
2022-10-21T02:13:51.875Z,8.66
2022-10-21T02:19:22.823Z,8.67
2022-10-21T02:25:01.098Z,8.65
2022-10-21T02:30:39.106Z,8.66
2022-10-21T02:36:45.394Z,8.66
2022-10-21T02:42:24.718Z,8.64
2022-10-21T02:47:56.295Z,8.60
2022-10-21T02:53:27.445Z,8.59
2022-10-21T02:58:58.606Z,8.59
2022-10-21T03:04:29.868Z,8.58
2022-10-21T03:10:00.555Z,8.58
2022-10-21T03:15:31.650Z,8.59
2022-10-21T03:21:02.853Z,8.57
2022-10-21T03:26:33.810Z,8.57
2022-10-21T03:32:05.129Z,8.59
2022-10-21T03:37:36.327Z,8.57
2022-10-21T03:43:07.220Z,8.56
2022-10-21T03:48:38.540Z,8.55
2022-10-21T03:54:09.447Z,8.54
2022-10-21T03:59:40.366Z,8.55
2022-10-21T04:05:12.001Z,8.57
2022-10-21T04:10:42.906Z,8.55
2022-10-21T04:16:17.347Z,8.51
2022-10-21T04:21:48.414Z,8.46
2022-10-21T04:27:19.437Z,8.48
2022-10-21T04:32:51.099Z,8.49
2022-10-21T04:38:26.686Z,8.47
2022-10-21T04:43:57.829Z,8.43
2022-10-21T04:49:29.053Z,8.39
2022-10-21T04:54:59.912Z,8.38
2022-10-21T05:00:30.951Z,8.37
2022-10-21T05:06:01.933Z,8.35
2022-10-21T05:11:32.859Z,8.33
2022-10-21T05:17:04.270Z,8.34
2022-10-21T05:22:35.206Z,8.35
2022-10-21T05:28:06.327Z,8.33
2022-10-21T05:33:37.213Z,8.34
2022-10-21T05:39:11.584Z,8.35
2022-10-21T05:44:43.065Z,8.37
2022-10-21T05:50:14.425Z,8.33
2022-10-21T05:55:45.354Z,8.33
2022-10-21T06:01:16.161Z,8.39
2022-10-21T06:06:47.714Z,8.43
2022-10-21T06:12:19.053Z,8.50
2022-10-21T06:17:51.877Z,8.54
2022-10-21T06:23:23.375Z,8.57
2022-10-21T06:28:54.720Z,8.63
2022-10-21T06:34:25.963Z,8.64
2022-10-21T06:39:57.471Z,8.72
2022-10-21T06:45:28.679Z,8.77
2022-10-21T06:51:01.802Z,8.76
2022-10-21T06:56:32.986Z,8.90
2022-10-21T07:02:03.878Z,8.93
2022-10-21T07:07:35.068Z,8.98
2022-10-21T07:13:06.457Z,8.96
2022-10-21T07:18:40.535Z,9.02
2022-10-21T07:24:16.294Z,9.02
2022-10-21T07:29:48.874Z,9.06
2022-10-21T07:35:19.712Z,9.11
2022-10-21T07:40:50.754Z,9.16
2022-10-21T07:46:22.824Z,9.17
2022-10-21T07:51:54.471Z,9.22
2022-10-21T07:57:25.978Z,9.26
2022-10-21T08:02:57.542Z,9.30
2022-10-21T08:08:28.809Z,9.35
2022-10-21T08:14:00.602Z,9.39
2022-10-21T08:19:31.597Z,9.49
2022-10-21T08:25:03.128Z,9.58
2022-10-21T08:30:34.070Z,9.65
2022-10-21T08:36:06.735Z,9.73
2022-10-21T08:41:44.091Z,9.79
2022-10-21T08:47:31.243Z,9.86
2022-10-21T08:53:15.443Z,9.88
2022-10-21T08:58:48.827Z,9.91
2022-10-21T09:04:27.688Z,9.98
2022-10-21T09:10:07.467Z,10.03
2022-10-21T09:15:53.923Z,10.07
2022-10-21T09:21:39.647Z,10.11
2022-10-21T09:27:11.196Z,10.15
2022-10-21T09:32:43.482Z,10.19
2022-10-21T09:38:48.594Z,10.22
2022-10-21T09:44:23.365Z,10.23
2022-10-21T09:50:07.240Z,10.27
2022-10-21T09:55:39.027Z,10.28
2022-10-21T10:01:16.987Z,10.27
2022-10-21T10:06:48.424Z,10.26
2022-10-21T10:12:25.104Z,10.26
2022-10-21T10:17:57.599Z,10.33
2022-10-21T10:23:28.869Z,10.40
2022-10-21T10:29:10.139Z,10.45
2022-10-21T10:34:53.446Z,10.49
2022-10-21T10:40:42.062Z,10.53
2022-10-21T10:46:20.347Z,10.55
2022-10-21T10:52:17.214Z,10.58
2022-10-21T10:58:05.888Z,10.60
2022-10-21T11:03:55.645Z,10.64
2022-10-21T11:09:27.591Z,10.69
2022-10-21T11:14:59.914Z,10.71
2022-10-21T11:20:39.110Z,10.73
2022-10-21T11:26:20.106Z,10.74
2022-10-21T11:32:36.101Z,10.78
2022-10-21T11:38:30.858Z,10.81
2022-10-21T11:44:13.907Z,10.80
2022-10-21T11:50:05.529Z,10.82
2022-10-21T11:55:46.091Z,10.85
2022-10-21T12:01:56.637Z,10.89
2022-10-21T12:07:44.707Z,10.90
2022-10-21T12:13:25.224Z,10.92
2022-10-21T12:18:58.958Z,10.94
2022-10-21T12:25:08.818Z,10.95
2022-10-21T12:30:39.718Z,10.96
2022-10-21T12:36:13.585Z,10.98
2022-10-21T12:41:47.053Z,11.00
2022-10-21T12:47:44.111Z,11.02
2022-10-21T12:53:42.268Z,11.03
2022-10-21T12:59:38.121Z,11.06
2022-10-21T13:05:09.360Z,11.06
2022-10-21T13:10:40.548Z,11.07
2022-10-21T13:16:20.827Z,11.09
2022-10-21T13:22:10.739Z,11.11
2022-10-21T13:27:47.129Z,11.07
2022-10-21T13:33:22.947Z,11.08
2022-10-21T13:38:55.675Z,11.06
2022-10-21T13:44:43.751Z,11.06
2022-10-21T13:50:28.673Z,11.05
2022-10-21T13:56:05.348Z,11.04
2022-10-21T14:01:56.468Z,11.04
2022-10-21T14:07:28.328Z,11.02
2022-10-21T14:18:45.602Z,10.99
2022-10-21T14:24:37.023Z,10.95
2022-10-21T14:30:11.931Z,10.94
2022-10-21T14:35:43.123Z,10.95
2022-10-21T14:41:18.169Z,10.92
2022-10-21T14:46:51.412Z,10.89
2022-10-21T14:52:25.424Z,10.88
2022-10-21T14:58:03.186Z,10.87
2022-10-21T15:03:47.799Z,10.85
2022-10-21T15:09:20.172Z,10.86
2022-10-21T15:14:51.647Z,10.87
2022-10-21T15:20:24.584Z,10.85
2022-10-21T15:26:23.801Z,10.82
2022-10-21T15:31:57.308Z,10.82
2022-10-21T15:37:28.543Z,10.81
2022-10-21T15:42:59.671Z,10.79
2022-10-21T15:48:30.864Z,10.80
2022-10-21T15:54:01.747Z,10.78
2022-10-21T15:59:33.836Z,10.75
2022-10-21T16:05:05.430Z,10.72
2022-10-21T16:10:37.383Z,10.72
2022-10-21T16:16:27.656Z,10.70
2022-10-21T16:21:58.881Z,10.72
2022-10-21T16:27:43.736Z,10.73
2022-10-21T16:33:21.491Z,10.73
2022-10-21T16:38:53.409Z,10.73
2022-10-21T16:44:24.692Z,10.72
2022-10-21T16:49:58.310Z,10.72
2022-10-21T16:55:29.329Z,10.72
2022-10-21T17:01:00.407Z,10.74
2022-10-21T17:06:31.826Z,10.74
2022-10-21T17:12:04.637Z,10.72
2022-10-21T17:17:37.090Z,10.72
2022-10-21T17:23:10.908Z,10.71
2022-10-21T17:28:41.868Z,10.70
2022-10-21T17:34:25.836Z,10.70
2022-10-21T17:39:57.135Z,10.69
2022-10-21T17:45:28.421Z,10.68
2022-10-21T17:51:02.059Z,10.67
2022-10-21T17:56:33.104Z,10.68
2022-10-21T18:02:04.344Z,10.66
2022-10-21T18:07:35.615Z,10.64
2022-10-21T18:13:06.492Z,10.64
2022-10-21T18:18:38.422Z,10.61
2022-10-21T18:24:12.471Z,10.58
2022-10-21T18:29:44.164Z,10.60
2022-10-21T18:35:16.066Z,10.58
2022-10-21T18:40:56.298Z,10.55
2022-10-21T18:46:34.884Z,10.54
2022-10-21T18:52:06.143Z,10.53
2022-10-21T18:57:37.324Z,10.53
2022-10-21T19:03:08.953Z,10.52
2022-10-21T19:08:39.961Z,10.49
2022-10-21T19:14:14.154Z,10.44
2022-10-21T19:19:45.958Z,10.44
2022-10-21T19:25:17.933Z,10.39
2022-10-21T19:30:49.176Z,10.40
2022-10-21T19:36:20.442Z,10.39
2022-10-21T19:41:51.877Z,10.37
2022-10-21T19:47:23.199Z,10.34
2022-10-21T19:52:54.107Z,10.34
2022-10-21T19:58:25.325Z,10.32
2022-10-21T20:03:56.252Z,10.28
2022-10-21T20:09:27.385Z,10.22
2022-10-21T20:14:58.412Z,10.18
2022-10-21T20:20:29.558Z,10.17
2022-10-21T20:26:00.510Z,10.09
2022-10-21T20:31:31.574Z,10.05
2022-10-21T20:37:02.921Z,10.03
2022-10-21T20:42:34.486Z,9.99
2022-10-21T20:48:05.516Z,9.94
2022-10-21T20:53:37.324Z,9.92
2022-10-21T20:59:12.421Z,9.93
2022-10-21T21:04:43.426Z,9.94
2022-10-21T21:10:14.505Z,9.94
2022-10-21T21:15:45.756Z,9.98
2022-10-21T21:21:18.637Z,10.00
2022-10-21T21:26:50.422Z,10.01
2022-10-21T21:32:21.674Z,10.03
2022-10-21T21:37:52.934Z,10.03
2022-10-21T21:43:23.970Z,10.04
2022-10-21T21:49:04.768Z,10.04
2022-10-21T21:54:36.513Z,10.05
2022-10-21T22:00:08.239Z,10.04
2022-10-21T22:05:40.193Z,10.05
2022-10-21T22:11:13.690Z,10.05
2022-10-21T22:16:44.767Z,10.04
2022-10-21T22:22:15.811Z,10.02
2022-10-21T22:27:46.611Z,10.04
2022-10-21T22:33:17.917Z,10.02
2022-10-21T22:38:48.993Z,10.04
2022-10-21T22:44:22.422Z,10.04
2022-10-21T22:49:53.551Z,10.05
2022-10-21T22:55:24.821Z,10.05
2022-10-21T23:06:33.938Z,10.04
2022-10-21T23:12:05.173Z,10.03
2022-10-21T23:17:36.455Z,10.02
2022-10-21T23:23:07.746Z,10.01
2022-10-21T23:28:38.903Z,9.98
2022-10-21T23:34:10.482Z,9.97
2022-10-21T23:39:41.634Z,9.94
2022-10-21T23:45:12.732Z,9.93
2022-10-21T23:50:44.680Z,9.94
2022-10-21T23:56:16.413Z,9.93
